Joshua Stewart

Recruteur en chef - Wrexham
14 Nov 2027
Dimanche
Processus

Personnalité

Adaptabilité (1) Ambition (6) Controverse (13) Loyauté (11) Pression (1) Professionnalisme (1) Sportivité (4) Tempérament (12)

Profil

Style d'entraînement Démocratique
Diplôme Continental C
Détermination 6
Gestion des joueurs 7
Motivation 12
Discipline 12
Satisfaction professionnelle
100%
Fatigue
0%
Rôle Recruteur en chef
Salaire 61.3K p/s
Contrat 14.03.2029

Performance

Comportement Bon
Efficacité de l'entraînement
49%
Développement des joueurs
60%
Prévention des blessures
60%
Mise en place tactique
60%

Suivi en cours

116
Joueur Club Statut Capacité Confiance Observé Dernière observation Dernier vote
Lucas Bergvall Tottenham Actif 153 / 169 40% 2 31.08.2027 -
Drew Baiera New York City Actif 93 / 113 40% 1 31.08.2027 -
Caleb Yirenkyi Coventry City Actif 147 / 146 40% 1 31.08.2027 -
Teo Rodríguez Pagano San Lorenzo Actif 113 / 136 40% 3 30.08.2027 -
Tyson Pearce St. Louis CITY SC Actif 102 / 95 40% 2 30.08.2027 -
Marc Roberts Barnsley Actif 104 / 101 72% 1 30.08.2027 Approuver
Ángel Aguayo Sol de America Actif 94 / 102 40% 1 30.08.2027 -
Victor Martinez Atletico Venezuela Actif 84 / 101 40% 2 29.08.2027 -
Rafael Vargas Cortulua Actif 84 / 93 40% 1 29.08.2027 -
Afriyie Sulemana Hasaacas Actif 97 / 98 40% 2 27.08.2027 -
Harrison Armstrong Everton Actif 137 / 136 40% 2 27.08.2027 -
Facundo Balatti Penarol Actif 108 / 121 40% 2 25.08.2027 -
Lautaro Dufur Rentistas Actif 99 / 95 40% 1 25.08.2027 -
Hosea Michael Remo Stars Actif 82 / 88 40% 2 22.08.2027 -
Gift Udoh Ikorodu City Actif 84 / 74 40% 1 22.08.2027 -
Simone Kosijer Triestina Actif 95 / 106 40% 5 20.08.2027 -
Ángel Peñaranda Mineros de Guayana Actif 86 / 101 40% 1 20.08.2027 -
Dilan Villarreal Junior Actif 93 / 107 40% 1 19.08.2027 -
Fabián Correa Barranquilla Actif 91 / 79 40% 2 18.08.2027 -
Vadim Arutyunyan Dnepr Mogilev Actif 91 / 92 40% 1 18.08.2027 -
Charalabos Erotokritou Doxa Actif 91 / 97 40% 4 15.08.2027 -
Ignacio Fernández Boston River Actif 94 / 100 40% 3 15.08.2027 -
Aidan Borland Aston Villa Actif 110 / 128 40% 1 15.08.2027 -
Hlompho Billiat Free State Stars Actif 97 / 86 40% 8 14.08.2027 -
Thiago Helguera Braga Actif 121 / 139 40% 2 14.08.2027 -
Mads Bomholt Rosenborg Actif 105 / 109 40% 1 14.08.2027 -
Eric Klein FC Cincinnati Actif 98 / 94 40% 3 13.08.2027 -
Pyry Mentu HJK Actif 113 / 118 40% 1 13.08.2027 -
Sergiu Perciun Torino Actif 106 / 111 40% 1 13.08.2027 -
Juan Diego Perdomo Depor Actif 87 / 83 40% 2 12.08.2027 -
Pablo Aguiar Gimnasia La Plata Actif 109 / 113 40% 1 12.08.2027 -
Augusto Bando Ascoli Actif 103 / 104 40% 5 11.08.2027 -
Sascha Britschgi Fiorentina Actif 126 / 118 40% 5 11.08.2027 -
Dylan Gorosito Boca Juniors Actif 111 / 121 40% 3 11.08.2027 -
Isaac Moore Leganés Actif 92 / 99 40% 2 10.08.2027 -
Brandon Powell Blackburn Rovers Actif 117 / 125 40% 2 08.08.2027 -
Mattia Puzone Siracusa Actif 108 / 97 40% 1 08.08.2027 -
Santino Baldassarri Quilmes Actif 85 / 99 40% 1 07.08.2027 -
Axel Tape Bayer Leverkusen Actif 127 / 129 40% 2 05.08.2027 -
Ezra Mayers West Ham United Actif 125 / 137 40% 4 04.08.2027 -
Martim Cunha Porto Actif 111 / 106 40% 4 03.08.2027 -
Kaick FC Dallas Actif 108 / 126 40% 5 02.08.2027 -
Charlie Gray Córdoba Actif 95 / 92 40% 4 02.08.2027 -
Musa Danjuma Hatayspor Actif 100 / 116 40% 5 31.07.2027 -
Odia Uyiosa Qarabag Actif 93 / 86 40% 1 31.07.2027 -
Nazareno Roselli Defensa y Justicia Actif 117 / 111 40% 3 29.07.2027 -
Axel Cabellos Cesar Vallejo Actif 79 / 79 40% 2 29.07.2027 -
Kwandakwesizwe Madonsela Golden Arrows Actif 91 / 113 40% 2 29.07.2027 -
Mandla Mothiba Free State Stars Actif 103 / 84 40% 6 28.07.2027 -
Bruno Alves Cruzeiro Actif 114 / 109 40% 2 27.07.2027 -
Martin Kern Puskas Akademia Actif 98 / 95 40% 4 26.07.2027 -
Sheriff Amuda Shooting Stars Actif 98 / 71 40% 1 26.07.2027 -
Somto Boniface Ipswich Town Actif 111 / 112 40% 1 25.07.2027 -
Yaroslav Matyukhin Alashkert Actif 93 / 87 40% 1 21.07.2027 -
Olalekan Adeleke Remo Stars Actif 98 / 91 40% 4 19.07.2027 -
Rafik el Arguioui Utrecht Actif 109 / 125 40% 1 19.07.2027 -
Bradley de Jesus Gil Vicente Actif 91 / 110 40% 2 17.07.2027 -
Pedro Manoel Tammeka Actif 89 / 91 40% 1 17.07.2027 -
Tiago Freitas Benfica Actif 110 / 118 40% 3 16.07.2027 -
Ibrahim Sabiu Bendel Insurance Actif 87 / 82 40% 2 12.07.2027 -
Jhoan Pinto Union Magdalena Actif 87 / 105 40% 1 11.07.2027 -
Mikhail Ryadno Baltika Actif 108 / 95 40% 4 08.07.2027 -
Ibrahim Coulibaly Clermont Foot Actif 117 / 104 40% 2 06.07.2027 -
Jarvis Thornton Sheffield Wednesday Actif 106 / 99 40% 1 06.07.2027 -
Juan Giménez Athletic Bilbao Actif 118 / 122 40% 2 03.07.2027 -
Daniel Kelly West Ham United Actif 115 / 126 40% 3 02.07.2027 -
Andrej Sestak FK Senica Actif 104 / 103 40% 2 01.07.2027 -
Josh Davidson Elche Actif 99 / 111 40% 1 01.07.2027 -
Sergey Chernov Zenit Actif 89 / 80 40% 1 26.06.2027 -
Harley Mills Peterborough United Actif 102 / 92 40% 2 25.06.2027 -
Mohamed Bolivar Barranquilla Actif 82 / 102 40% 1 21.06.2027 -
Jan Haala Jihlava Actif 81 / 83 40% 2 20.06.2027 -
Maxim Radchenko Rostov Actif 78 / 96 40% 1 20.06.2027 -
Rabby Nzingoula West Bromwich Albion Actif 120 / 121 40% 1 20.06.2027 -
Siphesihle Sithole Inter Allies Actif 79 / 97 40% 2 18.06.2027 -
Vincent Burlet Cracovia Actif 106 / 109 40% 1 10.06.2027 -
Isaac Smith Heracles Actif 98 / 103 40% 1 09.06.2027 -
Ifeanyi Okechukwu Nasarawa United Actif 93 / 93 40% 1 07.06.2027 -
Jaydee Canvot Crystal Palace Refusé 124 / 135 40% 1 25.01.2027 Plus d'infos
Raymond Agyemang Aduana Stars Actif 76 / 95 40% 1 25.01.2027 Plus d'infos
James Dornelly Peterborough United Actif 111 / 92 40% 1 24.01.2027 -
Dylan Lawlor Cardiff City Actif 108 / 133 40% 1 24.01.2027 -
Surprise Manthosi Polokwane City Actif 94 / 100 40% 5 21.01.2027 -
Miguel Figueiredo Benfica Actif 107 / 104 40% 2 20.01.2027 -
Juan Rodríguez Cagliari Actif 124 / 133 40% 1 20.01.2027 -
Daniel Banjaqui Benfica Actif 105 / 127 40% 2 19.01.2027 -
Elie N'Gatta Sochaux Actif 101 / 90 40% 3 18.01.2027 -
Joe Knight Stevenage Actif 97 / 118 40% 1 18.01.2027 -
Jonathan Bland Barnsley Actif 109 / 109 40% 1 17.01.2027 -
Ollie Scarles West Ham United Actif 129 / 145 40% 1 16.01.2027 -
Ignacio Perruzzi San Lorenzo Actif 124 / 113 40% 1 14.01.2027 -
Juan Pablo De la Reta Maipú Actif 102 / 124 40% 1 12.01.2027 -
Daniel Kyerewaa Reading Refusé 118 / 113 65% 1 11.01.2027 Refuser
Lucas Agazzi Benfica Actif 112 / 135 40% 2 10.01.2027 -
Ivan Shilenok Zenit Actif 89 / 100 40% 1 05.01.2027 -
Joseph Jones Kryvbas Actif 85 / 91 40% 1 04.01.2027 -
Santiago Fernández Talleres Actif 113 / 135 40% 1 02.01.2027 -
Taras Mykhavko Dynamo Kyiv Actif 129 / 131 40% 1 02.01.2027 -
Reed Baker-Whiting Nashville SC Actif 105 / 95 40% 1 30.08.2026 -
Mauricio Amaro Atlanta United FC Actif 120 / 135 40% 1 30.08.2026 -
Jacob Bartlett Sporting Kansas City Actif 94 / 87 40% 2 29.08.2026 -
Gabriel Lekan Kun Khalifat Actif 78 / 76 40% 1 29.08.2026 -
Joaquin Seys Club Brugge Actif 130 / 113 40% 2 28.08.2026 -
Joel Ezra Enyimba Actif 79 / 104 40% 1 28.08.2026 -
Emmanuel Mathias Ikorodu City Actif 101 / 121 40% 3 24.08.2026 -
Javier Mena Villarreal Actif 114 / 122 40% 1 16.08.2026 -
Mbekezeli Mbokazi Chicago Fire Actif 118 / 130 40% 2 15.08.2026 -
Jonny Shore New York City Actif 92 / 84 40% 1 14.08.2026 -
Chibueze Oputa Rangers International Actif 93 / 100 40% 1 14.08.2026 -
Facundo Di Biasi Gimnasia La Plata Actif 117 / 118 40% 1 12.08.2026 -
Ahmed Akinyele Remo Stars Actif 91 / 91 40% 1 12.08.2026 -
Aiden Hezarkhani Real Salt Lake Actif 88 / 85 40% 1 11.08.2026 -
Jofrank Istifanus Nasarawa United Actif 76 / 88 40% 1 07.08.2026 -
Tyler Hall Inter Miami CF Actif 93 / 81 40% 1 05.08.2026 -
Elías Báez Atlanta United FC Actif 108 / 128 40% 1 04.08.2026 -
Cielo Tschantret Sporting Kansas City Actif 92 / 71 40% 1 01.08.2026 -